sensor_id;sensor_type;location;lat;lon;timestamp;pressure;altitude;pressure_sealevel;temperature;humidity
6020;BME280;3038;51.122;6.840;2023-02-11T00:03:49;103214.84;;;6.27;76.75
6020;BME280;3038;51.122;6.840;2023-02-11T00:06:14;103211.44;;;6.25;76.99
6020;BME280;3038;51.122;6.840;2023-02-11T00:08:40;103203.66;;;6.22;76.89
6020;BME280;3038;51.122;6.840;2023-02-11T00:11:06;103194.03;;;6.21;77.02
6020;BME280;3038;51.122;6.840;2023-02-11T00:13:32;103194.09;;;6.19;77.16
6020;BME280;3038;51.122;6.840;2023-02-11T00:15:57;103192.31;;;6.20;77.56
6020;BME280;3038;51.122;6.840;2023-02-11T00:18:22;103194.03;;;6.21;77.61
6020;BME280;3038;51.122;6.840;2023-02-11T00:20:48;103184.19;;;6.24;77.41
6020;BME280;3038;51.122;6.840;2023-02-11T00:23:13;103202.72;;;6.23;77.29
6020;BME280;3038;51.122;6.840;2023-02-11T00:25:43;103200.03;;;6.24;77.45
6020;BME280;3038;51.122;6.840;2023-02-11T00:28:10;103197.31;;;6.26;77.45
6020;BME280;3038;51.122;6.840;2023-02-11T00:30:36;103196.25;;;6.30;77.44
6020;BME280;3038;51.122;6.840;2023-02-11T00:33:02;103189.03;;;6.33;77.36
6020;BME280;3038;51.122;6.840;2023-02-11T00:35:27;103187.28;;;6.34;77.17
6020;BME280;3038;51.122;6.840;2023-02-11T00:37:53;103175.63;;;6.38;77.01
6020;BME280;3038;51.122;6.840;2023-02-11T00:40:19;103176.50;;;6.38;77.57
6020;BME280;3038;51.122;6.840;2023-02-11T00:42:44;103167.50;;;6.42;77.34
6020;BME280;3038;51.122;6.840;2023-02-11T00:45:10;103170.06;;;6.44;76.95
6020;BME280;3038;51.122;6.840;2023-02-11T00:47:35;103169.22;;;6.43;77.30
6020;BME280;3038;51.122;6.840;2023-02-11T00:50:02;103167.56;;;6.41;77.30
6020;BME280;3038;51.122;6.840;2023-02-11T00:52:29;103168.63;;;6.37;77.10
6020;BME280;3038;51.122;6.840;2023-02-11T00:54:55;103169.00;;;6.29;77.40
6020;BME280;3038;51.122;6.840;2023-02-11T00:57:20;103165.94;;;6.20;77.93
6020;BME280;3038;51.122;6.840;2023-02-11T00:59:45;103168.84;;;6.13;78.21
6020;BME280;3038;51.122;6.840;2023-02-11T01:02:11;103167.22;;;6.11;78.41
6020;BME280;3038;51.122;6.840;2023-02-11T01:04:36;103174.19;;;6.12;77.98
6020;BME280;3038;51.122;6.840;2023-02-11T01:07:01;103180.31;;;6.12;78.27
6020;BME280;3038;51.122;6.840;2023-02-11T01:09:27;103182.03;;;6.13;78.23
6020;BME280;3038;51.122;6.840;2023-02-11T01:11:53;103179.41;;;6.13;78.00
6020;BME280;3038;51.122;6.840;2023-02-11T01:14:18;103175.06;;;6.12;78.29
6020;BME280;3038;51.122;6.840;2023-02-11T01:16:43;103168.19;;;6.08;77.96
6020;BME280;3038;51.122;6.840;2023-02-11T01:19:09;103163.09;;;6.05;78.52
6020;BME280;3038;51.122;6.840;2023-02-11T01:21:34;103164.78;;;6.06;78.54
6020;BME280;3038;51.122;6.840;2023-02-11T01:24:00;103161.34;;;6.04;78.57
6020;BME280;3038;51.122;6.840;2023-02-11T01:26:25;103159.59;;;6.05;78.34
6020;BME280;3038;51.122;6.840;2023-02-11T01:28:50;103166.72;;;6.03;78.17
6020;BME280;3038;51.122;6.840;2023-02-11T01:31:16;103174.63;;;6.03;78.41
6020;BME280;3038;51.122;6.840;2023-02-11T01:33:41;103173.88;;;5.99;78.38
6020;BME280;3038;51.122;6.840;2023-02-11T01:36:07;103168.78;;;5.96;78.75
6020;BME280;3038;51.122;6.840;2023-02-11T01:38:32;103170.75;;;5.91;79.15
6020;BME280;3038;51.122;6.840;2023-02-11T01:41:01;103186.44;;;5.94;78.83
6020;BME280;3038;51.122;6.840;2023-02-11T01:43:30;103196.00;;;5.97;78.57
6020;BME280;3038;51.122;6.840;2023-02-11T01:48:42;103195.16;;;5.96;78.62
6020;BME280;3038;51.122;6.840;2023-02-11T01:51:21;103191.69;;;5.94;79.19
6020;BME280;3038;51.122;6.840;2023-02-11T01:53:48;103184.03;;;5.88;79.93
6020;BME280;3038;51.122;6.840;2023-02-11T01:56:36;103193.81;;;5.86;79.31
6020;BME280;3038;51.122;6.840;2023-02-11T01:59:47;103187.81;;;5.82;79.69
6020;BME280;3038;51.122;6.840;2023-02-11T02:02:19;103181.91;;;5.77;79.55
6020;BME280;3038;51.122;6.840;2023-02-11T02:04:54;103176.91;;;5.71;80.27
6020;BME280;3038;51.122;6.840;2023-02-11T02:08:29;103163.97;;;5.65;80.68
6020;BME280;3038;51.122;6.840;2023-02-11T02:10:24;103163.97;;;5.65;80.78
6020;BME280;3038;51.122;6.840;2023-02-11T02:12:51;103164.81;;;5.65;80.21
6020;BME280;3038;51.122;6.840;2023-02-11T02:24:08;103154.69;;;5.77;81.03
6020;BME280;3038;51.122;6.840;2023-02-11T02:26:29;103165.88;;;5.82;80.86
6020;BME280;3038;51.122;6.840;2023-02-11T02:34:57;103166.78;;;6.01;80.74
6020;BME280;3038;51.122;6.840;2023-02-11T02:37:33;103165.66;;;6.07;80.66
6020;BME280;3038;51.122;6.840;2023-02-11T02:40:05;103153.19;;;6.10;80.24
6020;BME280;3038;51.122;6.840;2023-02-11T02:42:34;103134.72;;;6.10;80.35
6020;BME280;3038;51.122;6.840;2023-02-11T02:44:59;103144.34;;;6.11;80.24
6020;BME280;3038;51.122;6.840;2023-02-11T02:47:25;103151.22;;;6.14;80.16
6020;BME280;3038;51.122;6.840;2023-02-11T02:49:50;103144.00;;;6.19;79.88
6020;BME280;3038;51.122;6.840;2023-02-11T02:55:40;103128.94;;;6.21;80.33
6020;BME280;3038;51.122;6.840;2023-02-11T02:58:42;103134.13;;;6.23;80.18
6020;BME280;3038;51.122;6.840;2023-02-11T03:07:08;103126.59;;;6.34;79.78
6020;BME280;3038;51.122;6.840;2023-02-11T03:09:40;103129.06;;;6.37;79.64
6020;BME280;3038;51.122;6.840;2023-02-11T03:12:09;103131.69;;;6.37;79.86
6020;BME280;3038;51.122;6.840;2023-02-11T03:14:37;103135.13;;;6.39;79.60
6020;BME280;3038;51.122;6.840;2023-02-11T03:17:04;103136.75;;;6.41;79.03
6020;BME280;3038;51.122;6.840;2023-02-11T03:19:38;103127.13;;;6.40;79.27
6020;BME280;3038;51.122;6.840;2023-02-11T03:22:11;103123.72;;;6.38;79.50
6020;BME280;3038;51.122;6.840;2023-02-11T03:24:39;103119.31;;;6.39;79.60
6020;BME280;3038;51.122;6.840;2023-02-11T03:27:14;103121.00;;;6.40;79.35
6020;BME280;3038;51.122;6.840;2023-02-11T03:30:20;103112.16;;;6.41;79.38
6020;BME280;3038;51.122;6.840;2023-02-11T03:33:01;103105.25;;;6.38;79.31
6020;BME280;3038;51.122;6.840;2023-02-11T03:35:39;103095.59;;;6.37;79.34
6020;BME280;3038;51.122;6.840;2023-02-11T03:38:29;103095.59;;;6.37;79.53
6020;BME280;3038;51.122;6.840;2023-02-11T03:40:57;103094.75;;;6.37;79.34
6020;BME280;3038;51.122;6.840;2023-02-11T03:43:31;103102.53;;;6.40;79.59
6020;BME280;3038;51.122;6.840;2023-02-11T03:45:59;103105.00;;;6.43;79.22
6020;BME280;3038;51.122;6.840;2023-02-11T03:48:30;103113.63;;;6.47;79.52
6020;BME280;3038;51.122;6.840;2023-02-11T03:50:58;103117.13;;;6.47;79.02
6020;BME280;3038;51.122;6.840;2023-02-11T03:53:25;103120.72;;;6.46;79.27
6020;BME280;3038;51.122;6.840;2023-02-11T03:55:53;103125.97;;;6.46;79.27
6020;BME280;3038;51.122;6.840;2023-02-11T03:58:21;103128.47;;;6.49;78.92
6020;BME280;3038;51.122;6.840;2023-02-11T04:00:47;103126.69;;;6.50;78.90
6020;BME280;3038;51.122;6.840;2023-02-11T04:03:13;103117.13;;;6.47;78.50
6020;BME280;3038;51.122;6.840;2023-02-11T04:05:38;103105.00;;;6.43;79.06
6020;BME280;3038;51.122;6.840;2023-02-11T04:08:04;103105.47;;;6.34;79.44
6020;BME280;3038;51.122;6.840;2023-02-11T04:10:29;103105.53;;;6.32;79.29
6020;BME280;3038;51.122;6.840;2023-02-11T04:12:55;103101.19;;;6.31;79.80
6020;BME280;3038;51.122;6.840;2023-02-11T04:15:20;103106.47;;;6.31;79.86
6020;BME280;3038;51.122;6.840;2023-02-11T04:17:46;103093.34;;;6.30;79.48
6020;BME280;3038;51.122;6.840;2023-02-11T04:20:11;103096.75;;;6.32;79.65
6020;BME280;3038;51.122;6.840;2023-02-11T04:22:37;103096.75;;;6.32;79.71
6020;BME280;3038;51.122;6.840;2023-02-11T04:25:04;103089.88;;;6.29;80.35
6020;BME280;3038;51.122;6.840;2023-02-11T04:27:30;103097.63;;;6.32;80.24
6020;BME280;3038;51.122;6.840;2023-02-11T04:29:56;103095.78;;;6.34;79.57
6020;BME280;3038;51.122;6.840;2023-02-11T04:32:21;103094.03;;;6.33;80.08
6020;BME280;3038;51.122;6.840;2023-02-11T04:34:46;103098.47;;;6.33;80.58
6020;BME280;3038;51.122;6.840;2023-02-11T04:37:12;103082.50;;;6.36;79.93
6020;BME280;3038;51.122;6.840;2023-02-11T04:39:38;103081.72;;;6.34;80.08
6020;BME280;3038;51.122;6.840;2023-02-11T04:42:03;103093.06;;;6.36;80.54
6020;BME280;3038;51.122;6.840;2023-02-11T04:44:28;103078.94;;;6.37;80.61
6020;BME280;3038;51.122;6.840;2023-02-11T04:46:54;103094.00;;;6.35;80.40
6020;BME280;3038;51.122;6.840;2023-02-11T04:49:19;103091.28;;;6.36;80.27
6020;BME280;3038;51.122;6.840;2023-02-11T04:51:44;103082.63;;;6.33;80.60
6020;BME280;3038;51.122;6.840;2023-02-11T04:54:10;103089.88;;;6.29;80.62
6020;BME280;3038;51.122;6.840;2023-02-11T04:56:36;103088.75;;;6.33;81.12
6020;BME280;3038;51.122;6.840;2023-02-11T04:59:02;103100.25;;;6.32;80.74
6020;BME280;3038;51.122;6.840;2023-02-11T05:01:28;103101.09;;;6.33;81.17
6020;BME280;3038;51.122;6.840;2023-02-11T05:03:53;103109.66;;;6.38;80.83
6020;BME280;3038;51.122;6.840;2023-02-11T05:06:19;103106.16;;;6.37;81.13
6020;BME280;3038;51.122;6.840;2023-02-11T05:08:44;103094.75;;;6.37;80.96
6020;BME280;3038;51.122;6.840;2023-02-11T05:11:18;103096.63;;;6.35;81.42
6020;BME280;3038;51.122;6.840;2023-02-11T05:13:44;103093.91;;;6.36;81.40
6020;BME280;3038;51.122;6.840;2023-02-11T05:16:09;103097.41;;;6.37;81.45
6020;BME280;3038;51.122;6.840;2023-02-11T05:18:39;103096.47;;;6.38;81.52
6020;BME280;3038;51.122;6.840;2023-02-11T05:21:06;103105.19;;;6.40;81.13
6020;BME280;3038;51.122;6.840;2023-02-11T05:23:32;103101.47;;;6.44;81.19
6020;BME280;3038;51.122;6.840;2023-02-11T05:25:58;103097.03;;;6.44;81.37
6020;BME280;3038;51.122;6.840;2023-02-11T05:28:23;103091.91;;;6.41;81.21
6020;BME280;3038;51.122;6.840;2023-02-11T05:30:49;103082.38;;;6.39;81.69
6020;BME280;3038;51.122;6.840;2023-02-11T05:33:14;103081.56;;;6.37;82.04
6020;BME280;3038;51.122;6.840;2023-02-11T05:35:39;103079.94;;;6.34;82.42
6020;BME280;3038;51.122;6.840;2023-02-11T05:38:05;103087.78;;;6.36;82.53
6020;BME280;3038;51.122;6.840;2023-02-11T05:40:30;103087.06;;;6.32;82.96
6020;BME280;3038;51.122;6.840;2023-02-11T05:42:55;103089.66;;;6.34;82.62
6020;BME280;3038;51.122;6.840;2023-02-11T05:45:21;103098.25;;;6.37;82.46
6020;BME280;3038;51.122;6.840;2023-02-11T05:47:46;103097.34;;;6.38;82.74
6020;BME280;3038;51.122;6.840;2023-02-11T05:50:11;103091.19;;;6.38;83.26
6020;BME280;3038;51.122;6.840;2023-02-11T05:52:37;103083.22;;;6.39;83.18
6020;BME280;3038;51.122;6.840;2023-02-11T05:55:02;103077.84;;;6.41;83.27
6020;BME280;3038;51.122;6.840;2023-02-11T05:57:28;103064.78;;;6.38;83.35
6020;BME280;3038;51.122;6.840;2023-02-11T05:59:53;103067.81;;;6.30;83.49
6020;BME280;3038;51.122;6.840;2023-02-11T06:02:19;103068.13;;;6.24;84.24
6020;BME280;3038;51.122;6.840;2023-02-11T06:04:44;103078.69;;;6.24;84.40
6020;BME280;3038;51.122;6.840;2023-02-11T06:07:10;103075.25;;;6.22;84.74
6020;BME280;3038;51.122;6.840;2023-02-11T06:09:35;103072.81;;;6.17;85.00
6020;BME280;3038;51.122;6.840;2023-02-11T06:12:01;103075.63;;;6.14;85.19
6020;BME280;3038;51.122;6.840;2023-02-11T06:14:26;103068.63;;;6.13;85.35
6020;BME280;3038;51.122;6.840;2023-02-11T06:16:52;103076.41;;;6.16;85.10
6020;BME280;3038;51.122;6.840;2023-02-11T06:19:17;103084.19;;;6.20;84.72
6020;BME280;3038;51.122;6.840;2023-02-11T06:21:42;103080.53;;;6.22;85.09
6020;BME280;3038;51.122;6.840;2023-02-11T06:24:08;103078.69;;;6.24;85.05
6020;BME280;3038;51.122;6.840;2023-02-11T06:26:33;103080.53;;;6.22;85.09
6020;BME280;3038;51.122;6.840;2023-02-11T06:28:59;103076.91;;;6.25;84.98
6020;BME280;3038;51.122;6.840;2023-02-11T06:31:25;103068.97;;;6.25;84.78
6020;BME280;3038;51.122;6.840;2023-02-11T06:33:50;103074.41;;;6.22;85.30
6020;BME280;3038;51.122;6.840;2023-02-11T06:36:18;103075.97;;;6.26;85.25
6020;BME280;3038;51.122;6.840;2023-02-11T06:38:45;103082.22;;;6.23;85.15
6020;BME280;3038;51.122;6.840;2023-02-11T06:41:12;103101.84;;;6.17;86.64
6020;BME280;3038;51.122;6.840;2023-02-11T06:43:38;103095.59;;;6.20;85.99
6020;BME280;3038;51.122;6.840;2023-02-11T06:46:04;103094.72;;;6.20;86.20
6020;BME280;3038;51.122;6.840;2023-02-11T06:48:29;103095.38;;;6.25;85.99
6020;BME280;3038;51.122;6.840;2023-02-11T06:50:54;103095.38;;;6.25;86.11
6020;BME280;3038;51.122;6.840;2023-02-11T06:53:20;103103.31;;;6.23;86.80
6020;BME280;3038;51.122;6.840;2023-02-11T06:55:45;103104.91;;;6.27;86.16
6020;BME280;3038;51.122;6.840;2023-02-11T06:58:10;103103.28;;;6.25;86.64
6020;BME280;3038;51.122;6.840;2023-02-11T07:00:36;103100.47;;;6.28;86.27
6020;BME280;3038;51.122;6.840;2023-02-11T07:03:02;103107.63;;;6.26;86.45
6020;BME280;3038;51.122;6.840;2023-02-11T07:05:27;103104.84;;;6.29;86.57
6020;BME280;3038;51.122;6.840;2023-02-11T07:07:52;103105.47;;;6.34;86.00
6020;BME280;3038;51.122;6.840;2023-02-11T07:10:18;103108.13;;;6.34;86.26
6020;BME280;3038;51.122;6.840;2023-02-11T07:12:43;103104.47;;;6.36;86.01
6020;BME280;3038;51.122;6.840;2023-02-11T07:15:08;103097.41;;;6.37;86.23
6020;BME280;3038;51.122;6.840;2023-02-11T07:17:34;103105.47;;;6.34;86.33
6020;BME280;3038;51.122;6.840;2023-02-11T07:20:00;103110.75;;;6.34;86.61
6020;BME280;3038;51.122;6.840;2023-02-11T07:22:25;103108.13;;;6.34;86.09
6020;BME280;3038;51.122;6.840;2023-02-11T07:24:50;103108.16;;;6.32;86.51
6020;BME280;3038;51.122;6.840;2023-02-11T07:27:16;103108.88;;;6.36;86.31
6020;BME280;3038;51.122;6.840;2023-02-11T07:29:41;103114.16;;;6.36;86.71
6020;BME280;3038;51.122;6.840;2023-02-11T07:32:07;103121.00;;;6.40;86.45
6020;BME280;3038;51.122;6.840;2023-02-11T07:34:32;103126.38;;;6.38;86.84
6020;BME280;3038;51.122;6.840;2023-02-11T07:36:57;103124.41;;;6.42;86.63
6020;BME280;3038;51.122;6.840;2023-02-11T07:39:23;103125.34;;;6.41;86.21
6020;BME280;3038;51.122;6.840;2023-02-11T07:41:52;103126.13;;;6.43;86.16
6020;BME280;3038;51.122;6.840;2023-02-11T07:44:17;103127.00;;;6.43;87.10
6020;BME280;3038;51.122;6.840;2023-02-11T07:46:42;103134.84;;;6.45;86.79
6020;BME280;3038;51.122;6.840;2023-02-11T07:49:10;103134.97;;;6.42;86.72
6020;BME280;3038;51.122;6.840;2023-02-11T07:51:35;103141.09;;;6.42;87.06
6020;BME280;3038;51.122;6.840;2023-02-11T07:54:01;103133.25;;;6.41;87.31
6020;BME280;3038;51.122;6.840;2023-02-11T07:56:27;103138.53;;;6.41;87.19
6020;BME280;3038;51.122;6.840;2023-02-11T07:58:53;103141.25;;;6.39;87.04
6020;BME280;3038;51.122;6.840;2023-02-11T08:01:23;103142.13;;;6.40;87.67
6020;BME280;3038;51.122;6.840;2023-02-11T08:03:53;103142.13;;;6.40;87.21
6020;BME280;3038;51.122;6.840;2023-02-11T08:06:20;103137.81;;;6.37;87.64
6020;BME280;3038;51.122;6.840;2023-02-11T08:08:46;103142.25;;;6.37;87.79
6020;BME280;3038;51.122;6.840;2023-02-11T08:11:20;103141.25;;;6.39;87.93
6020;BME280;3038;51.122;6.840;2023-02-11T08:13:46;103134.91;;;6.43;88.08
6020;BME280;3038;51.122;6.840;2023-02-11T08:16:21;103142.88;;;6.42;88.10
6020;BME280;3038;51.122;6.840;2023-02-11T08:18:47;103148.97;;;6.44;88.25
6020;BME280;3038;51.122;6.840;2023-02-11T08:21:13;103147.81;;;6.50;88.03
6020;BME280;3038;51.122;6.840;2023-02-11T08:23:40;103142.31;;;6.54;88.07
6020;BME280;3038;51.122;6.840;2023-02-11T08:26:08;103142.22;;;6.56;87.55
6020;BME280;3038;51.122;6.840;2023-02-11T08:28:35;103141.38;;;6.55;87.75
6020;BME280;3038;51.122;6.840;2023-02-11T08:31:09;103146.66;;;6.55;88.15
6020;BME280;3038;51.122;6.840;2023-02-11T08:33:36;103146.75;;;6.54;88.42
6020;BME280;3038;51.122;6.840;2023-02-11T08:36:09;103156.13;;;6.59;87.89
6020;BME280;3038;51.122;6.840;2023-02-11T08:38:35;103151.78;;;6.58;87.94
6020;BME280;3038;51.122;6.840;2023-02-11T08:41:00;103154.50;;;6.57;88.02
6020;BME280;3038;51.122;6.840;2023-02-11T08:43:26;103151.78;;;6.58;88.36
6020;BME280;3038;51.122;6.840;2023-02-11T08:45:51;103153.63;;;6.56;88.45
6020;BME280;3038;51.122;6.840;2023-02-11T08:48:16;103155.34;;;6.57;88.73
6020;BME280;3038;51.122;6.840;2023-02-11T08:50:42;103158.16;;;6.54;88.67
6020;BME280;3038;51.122;6.840;2023-02-11T08:53:07;103162.19;;;6.61;88.92
6020;BME280;3038;51.122;6.840;2023-02-11T08:55:33;103165.75;;;6.60;88.79
6020;BME280;3038;51.122;6.840;2023-02-11T08:57:58;103172.53;;;6.66;88.67
6020;BME280;3038;51.122;6.840;2023-02-11T09:00:23;103175.75;;;6.73;88.55
6020;BME280;3038;51.122;6.840;2023-02-11T09:02:49;103177.44;;;6.74;88.12
6020;BME280;3038;51.122;6.840;2023-02-11T09:05:14;103192.28;;;6.76;88.24
6020;BME280;3038;51.122;6.840;2023-02-11T09:07:40;103179.28;;;6.72;88.38
6020;BME280;3038;51.122;6.840;2023-02-11T09:10:05;103190.66;;;6.74;88.38
6020;BME280;3038;51.122;6.840;2023-02-11T09:12:31;103188.00;;;6.74;88.23
6020;BME280;3038;51.122;6.840;2023-02-11T09:14:56;103186.00;;;6.79;88.21
6020;BME280;3038;51.122;6.840;2023-02-11T09:17:22;103198.13;;;6.83;88.50
6020;BME280;3038;51.122;6.840;2023-02-11T09:19:48;103196.25;;;6.85;88.19
6020;BME280;3038;51.122;6.840;2023-02-11T09:22:13;103194.00;;;6.94;87.75
6020;BME280;3038;51.122;6.840;2023-02-11T09:24:39;103195.72;;;6.95;87.62
6020;BME280;3038;51.122;6.840;2023-02-11T09:27:05;103195.88;;;6.92;87.20
6020;BME280;3038;51.122;6.840;2023-02-11T09:29:30;103194.25;;;6.90;87.97
6020;BME280;3038;51.122;6.840;2023-02-11T09:31:55;103203.72;;;6.94;88.00
6020;BME280;3038;51.122;6.840;2023-02-11T09:34:21;103200.16;;;6.95;87.48
6020;BME280;3038;51.122;6.840;2023-02-11T09:36:46;103206.38;;;6.94;87.95
6020;BME280;3038;51.122;6.840;2023-02-11T09:39:15;103206.47;;;6.92;87.72
6020;BME280;3038;51.122;6.840;2023-02-11T09:41:57;103209.78;;;6.96;87.87
6020;BME280;3038;51.122;6.840;2023-02-11T09:44:28;103210.56;;;6.98;87.82
6020;BME280;3038;51.122;6.840;2023-02-11T09:46:57;103214.06;;;6.99;87.70
6020;BME280;3038;51.122;6.840;2023-02-11T09:49:40;103214.94;;;6.99;87.85
6020;BME280;3038;51.122;6.840;2023-02-11T09:52:35;103216.41;;;7.05;88.16
6020;BME280;3038;51.122;6.840;2023-02-11T09:55:04;103216.50;;;7.03;87.51
6020;BME280;3038;51.122;6.840;2023-02-11T09:57:35;103212.06;;;7.04;88.10
6020;BME280;3038;51.122;6.840;2023-02-11T10:00:15;103223.34;;;7.07;87.77
6020;BME280;3038;51.122;6.840;2023-02-11T10:05:57;103235.59;;;7.08;87.83
6020;BME280;3038;51.122;6.840;2023-02-11T10:08:32;103235.38;;;7.13;87.72
6020;BME280;3038;51.122;6.840;2023-02-11T10:11:25;103231.09;;;7.10;88.03
6020;BME280;3038;51.122;6.840;2023-02-11T10:14:04;103239.91;;;7.11;87.77
6020;BME280;3038;51.122;6.840;2023-02-11T10:16:42;103254.72;;;7.13;87.37
6020;BME280;3038;51.122;6.840;2023-02-11T10:19:32;103247.44;;;7.18;87.53
6020;BME280;3038;51.122;6.840;2023-02-11T10:24:50;103243.72;;;7.22;87.77
6020;BME280;3038;51.122;6.840;2023-02-11T10:27:26;103242.41;;;7.31;87.33
6020;BME280;3038;51.122;6.840;2023-02-11T10:30:06;103244.19;;;7.31;86.97
6020;BME280;3038;51.122;6.840;2023-02-11T10:33:03;103244.25;;;7.29;87.32
6020;BME280;3038;51.122;6.840;2023-02-11T10:35:36;103241.59;;;7.29;87.07
6020;BME280;3038;51.122;6.840;2023-02-11T10:38:02;103243.41;;;7.29;87.23
6020;BME280;3038;51.122;6.840;2023-02-11T10:40:29;103247.13;;;7.25;87.14
6020;BME280;3038;51.122;6.840;2023-02-11T10:42:57;103244.41;;;7.26;87.05
6020;BME280;3038;51.122;6.840;2023-02-11T10:47:59;103250.63;;;7.25;87.55
6020;BME280;3038;51.122;6.840;2023-02-11T10:50:30;103245.28;;;7.27;87.19
6020;BME280;3038;51.122;6.840;2023-02-11T10:53:20;103241.38;;;7.34;87.63
6020;BME280;3038;51.122;6.840;2023-02-11T10:55:52;103249.41;;;7.32;87.52
6020;BME280;3038;51.122;6.840;2023-02-11T10:58:24;103244.97;;;7.33;87.35
6020;BME280;3038;51.122;6.840;2023-02-11T11:00:52;103237.34;;;7.27;87.09
6020;BME280;3038;51.122;6.840;2023-02-11T11:03:20;103237.19;;;7.30;86.97
6020;BME280;3038;51.122;6.840;2023-02-11T11:08:16;103253.66;;;7.35;86.90
6020;BME280;3038;51.122;6.840;2023-02-11T11:10:45;103242.78;;;7.41;87.12
6020;BME280;3038;51.122;6.840;2023-02-11T11:13:26;103239.69;;;7.50;86.82
6020;BME280;3038;51.122;6.840;2023-02-11T11:18:36;103253.06;;;7.47;86.15
6020;BME280;3038;51.122;6.840;2023-02-11T11:23:37;103244.56;;;7.58;86.47
6020;BME280;3038;51.122;6.840;2023-02-11T11:26:08;103243.56;;;7.60;86.04
6020;BME280;3038;51.122;6.840;2023-02-11T11:31:21;103242.16;;;7.53;86.64
6020;BME280;3038;51.122;6.840;2023-02-11T11:33:50;103233.16;;;7.57;86.36
6020;BME280;3038;51.122;6.840;2023-02-11T11:36:21;103241.06;;;7.57;86.52
6020;BME280;3038;51.122;6.840;2023-02-11T11:38:55;103242.09;;;7.55;86.00
6020;BME280;3038;51.122;6.840;2023-02-11T11:41:25;103244.53;;;7.59;86.35
6020;BME280;3038;51.122;6.840;2023-02-11T11:46:41;103244.53;;;7.59;85.79
6020;BME280;3038;51.122;6.840;2023-02-11T11:49:24;103240.00;;;7.61;86.30
6020;BME280;3038;51.122;6.840;2023-02-11T11:55:17;103244.00;;;7.68;85.56
6020;BME280;3038;51.122;6.840;2023-02-11T11:57:43;103246.50;;;7.71;85.77
6020;BME280;3038;51.122;6.840;2023-02-11T12:00:14;103238.50;;;7.73;86.14
6020;BME280;3038;51.122;6.840;2023-02-11T12:05:25;103239.19;;;7.77;85.76
6020;BME280;3038;51.122;6.840;2023-02-11T12:08:19;103236.47;;;7.78;85.54
6020;BME280;3038;51.122;6.840;2023-02-11T12:27:02;103232.34;;;7.72;86.14
6020;BME280;3038;51.122;6.840;2023-02-11T12:29:40;103246.19;;;7.78;85.91
6020;BME280;3038;51.122;6.840;2023-02-11T12:45:34;103221.16;;;7.85;85.37
6020;BME280;3038;51.122;6.840;2023-02-11T12:56:27;103224.56;;;7.87;86.02
6020;BME280;3038;51.122;6.840;2023-02-11T12:58:57;103215.69;;;7.88;85.80
6020;BME280;3038;51.122;6.840;2023-02-11T13:01:28;103221.06;;;7.86;86.21
6020;BME280;3038;51.122;6.840;2023-02-11T13:04:36;103220.97;;;7.88;85.63
6020;BME280;3038;51.122;6.840;2023-02-11T13:07:10;103217.41;;;7.89;86.20
6020;BME280;3038;51.122;6.840;2023-02-11T13:12:37;103216.47;;;7.90;86.19
6020;BME280;3038;51.122;6.840;2023-02-11T13:15:21;103222.75;;;7.87;85.92
6020;BME280;3038;51.122;6.840;2023-02-11T13:20:48;103222.38;;;7.95;86.03
6020;BME280;3038;51.122;6.840;2023-02-11T13:23:18;103220.66;;;7.94;86.15
6020;BME280;3038;51.122;6.840;2023-02-11T13:25:52;103214.53;;;7.93;85.73
6020;BME280;3038;51.122;6.840;2023-02-11T13:28:31;103213.69;;;7.93;86.29
6020;BME280;3038;51.122;6.840;2023-02-11T13:31:01;103210.94;;;7.94;86.22
6020;BME280;3038;51.122;6.840;2023-02-11T13:33:38;103209.91;;;7.97;86.15
6020;BME280;3038;51.122;6.840;2023-02-11T13:38:32;103218.63;;;7.99;86.59
6020;BME280;3038;51.122;6.840;2023-02-11T13:41:05;103218.38;;;8.04;85.85
6020;BME280;3038;51.122;6.840;2023-02-11T13:43:35;103219.69;;;8.12;86.36
6020;BME280;3038;51.122;6.840;2023-02-11T13:46:06;103218.75;;;8.13;85.77
6020;BME280;3038;51.122;6.840;2023-02-11T13:48:36;103216.97;;;8.14;85.97
6020;BME280;3038;51.122;6.840;2023-02-11T13:51:05;103208.78;;;8.18;85.68
6020;BME280;3038;51.122;6.840;2023-02-11T13:53:48;103213.22;;;8.18;85.71
6020;BME280;3038;51.122;6.840;2023-02-11T13:56:40;103212.03;;;8.23;85.75
6020;BME280;3038;51.122;6.840;2023-02-11T14:02:20;103210.81;;;8.29;84.94
6020;BME280;3038;51.122;6.840;2023-02-11T14:13:26;103211.06;;;8.42;84.87
6020;BME280;3038;51.122;6.840;2023-02-11T14:29:27;103218.56;;;8.49;84.62
6020;BME280;3038;51.122;6.840;2023-02-11T14:34:55;103208.31;;;8.43;84.92
6020;BME280;3038;51.122;6.840;2023-02-11T14:37:56;103213.44;;;8.46;84.78
6020;BME280;3038;51.122;6.840;2023-02-11T14:40:34;103209.91;;;8.46;84.59
6020;BME280;3038;51.122;6.840;2023-02-11T14:43:12;103210.56;;;8.51;84.36
6020;BME280;3038;51.122;6.840;2023-02-11T14:45:39;103213.94;;;8.53;84.75
6020;BME280;3038;51.122;6.840;2023-02-11T14:48:17;103214.66;;;8.57;84.16
6020;BME280;3038;51.122;6.840;2023-02-11T14:50:52;103215.50;;;8.57;83.97
6020;BME280;3038;51.122;6.840;2023-02-11T14:53:22;103228.13;;;8.52;83.78
6020;BME280;3038;51.122;6.840;2023-02-11T14:55:51;103216.94;;;8.47;84.16
6020;BME280;3038;51.122;6.840;2023-02-11T14:58:25;103218.50;;;8.51;84.81
6020;BME280;3038;51.122;6.840;2023-02-11T15:03:39;103225.91;;;8.60;84.24
6020;BME280;3038;51.122;6.840;2023-02-11T15:09:04;103239.22;;;8.59;83.98
6020;BME280;3038;51.122;6.840;2023-02-11T15:11:33;103238.53;;;8.55;84.05
6020;BME280;3038;51.122;6.840;2023-02-11T15:14:20;103231.53;;;8.54;84.15
6020;BME280;3038;51.122;6.840;2023-02-11T15:16:47;103229.69;;;8.56;84.67
6020;BME280;3038;51.122;6.840;2023-02-11T15:19:28;103228.47;;;8.62;83.93
6020;BME280;3038;51.122;6.840;2023-02-11T15:21:55;103222.50;;;8.58;84.13
6020;BME280;3038;51.122;6.840;2023-02-11T15:24:25;103222.34;;;8.61;84.58
6020;BME280;3038;51.122;6.840;2023-02-11T15:26:56;103231.03;;;8.63;83.87
6020;BME280;3038;51.122;6.840;2023-02-11T15:29:34;103240.88;;;8.61;83.99
6020;BME280;3038;51.122;6.840;2023-02-11T15:32:26;103241.78;;;8.60;83.75
6020;BME280;3038;51.122;6.840;2023-02-11T15:34:52;103250.88;;;8.56;84.49
6020;BME280;3038;51.122;6.840;2023-02-11T15:37:22;103259.41;;;8.61;83.37
6020;BME280;3038;51.122;6.840;2023-02-11T15:39:48;103259.22;;;8.64;83.50
6020;BME280;3038;51.122;6.840;2023-02-11T15:42:27;103251.63;;;8.58;83.67
6020;BME280;3038;51.122;6.840;2023-02-11T15:45:16;103251.63;;;8.58;84.17
6020;BME280;3038;51.122;6.840;2023-02-11T15:47:50;103252.56;;;8.57;84.02
6020;BME280;3038;51.122;6.840;2023-02-11T15:50:31;103258.81;;;8.56;84.13
6020;BME280;3038;51.122;6.840;2023-02-11T15:53:01;103258.22;;;8.51;84.28